Time;durP1;ratioP1;P1;durP2;ratioP2;P2;SDS_P1;SDS_P2;PMS_P1;PMS_P2;Temp;Humidity;BMP_temperature;BMP_pressure;BME280_temperature;BME280_humidity;BME280_pressure;Samples;Min_cycle;Max_cycle;Signal;HPM_P1;HPM_P2
2021/08/22 00:00:30;;;;;;;9.43;4.38;;;;;;;;;;5094556;28;20384;-73
2021/08/22 00:02:56;;;;;;;11.35;4.95;;;;;;;;;;5094173;28;20028;-73
2021/08/22 00:05:22;;;;;;;7.10;3.92;;;;;;;;;;5094356;28;20052;-73
2021/08/22 00:07:48;;;;;;;12.95;5.13;;;;;;;;;;5094079;28;20428;-73
2021/08/22 00:10:15;;;;;;;9.32;4.80;;;;;;;;;;5094000;28;20027;-73
2021/08/22 00:12:41;;;;;;;9.88;4.80;;;;;;;;;;5094019;28;20023;-73
2021/08/22 00:15:08;;;;;;;8.45;4.68;;;;;;;;;;5093909;28;20468;-73
2021/08/22 00:17:34;;;;;;;9.85;4.80;;;;;;;;;;5094088;28;20127;-73
2021/08/22 00:20:00;;;;;;;9.68;4.22;;;;;;;;;;5094211;28;20028;-73
2021/08/22 00:22:26;;;;;;;8.68;4.55;;;;;;;;;;5093845;28;20077;-73
2021/08/22 00:24:52;;;;;;;10.30;4.55;;;;;;;;;;5093746;28;20446;-73
2021/08/22 00:27:18;;;;;;;13.48;4.55;;;;;;;;;;5093784;28;20024;-73
2021/08/22 00:29:44;;;;;;;10.10;5.07;;;;;;;;;;5093700;28;20035;-73
2021/08/22 00:32:10;;;;;;;8.52;4.72;;;;;;;;;;5075547;28;20028;-73
2021/08/22 00:34:36;;;;;;;10.25;5.07;;;;;;;;;;5093613;28;20023;-73
2021/08/22 00:37:02;;;;;;;10.20;4.90;;;;;;;;;;5093621;28;20028;-73
2021/08/22 00:39:29;;;;;;;9.95;4.43;;;;;;;;;;5093583;28;20103;-73
2021/08/22 00:41:55;;;;;;;10.43;4.50;;;;;;;;;;5093604;28;20106;-73
2021/08/22 00:44:21;;;;;;;8.38;4.03;;;;;;;;;;5092999;28;20016;-73
2021/08/22 00:46:48;;;;;;;9.48;4.05;;;;;;;;;;5093687;28;20031;-73
2021/08/22 00:49:14;;;;;;;7.75;4.43;;;;;;;;;;5093490;28;20481;-73
2021/08/22 00:51:42;;;;;;;8.65;4.55;;;;;;;;;;5093455;28;20110;-73
2021/08/22 00:54:08;;;;;;;7.60;4.32;;;;;;;;;;5093976;28;20109;-73
2021/08/22 00:56:34;;;;;;;10.07;4.68;;;;;;;;;;5093935;28;20032;-73
2021/08/22 00:59:03;;;;;;;10.15;4.60;;;;;;;;;;5093427;28;20055;-73
2021/08/22 01:01:30;;;;;;;10.60;4.18;;;;;;;;;;5093374;28;20395;-73
2021/08/22 01:04:03;;;;;;;7.97;4.10;;;;;;;;;;5093318;28;20020;-73
2021/08/22 01:06:29;;;;;;;8.98;4.93;;;;;;;;;;5093519;28;20525;-73
2021/08/22 01:08:58;;;;;;;9.32;4.28;;;;;;;;;;5093251;28;20016;-73
2021/08/22 01:11:25;;;;;;;11.32;5.43;;;;;;;;;;5093553;28;20028;-73
2021/08/22 01:13:55;;;;;;;9.88;5.03;;;;;;;;;;5093262;28;20024;-73
2021/08/22 01:16:22;;;;;;;8.32;4.20;;;;;;;;;;5093453;28;20035;-73
2021/08/22 01:18:48;;;;;;;8.45;4.10;;;;;;;;;;5092828;28;20051;-73
2021/08/22 01:21:20;;;;;;;9.98;4.47;;;;;;;;;;5093076;28;20048;-73
2021/08/22 01:24:02;;;;;;;8.50;4.53;;;;;;;;;;5093178;28;20024;-73
2021/08/22 01:26:30;;;;;;;7.20;4.30;;;;;;;;;;5093663;28;20023;-73
2021/08/22 01:28:59;;;;;;;10.23;5.18;;;;;;;;;;5093029;28;20058;-73
2021/08/22 01:31:37;;;;;;;10.35;4.80;;;;;;;;;;5093295;28;20432;-73
2021/08/22 01:34:03;;;;;;;8.32;4.60;;;;;;;;;;5093342;28;20050;-73
2021/08/22 01:36:30;;;;;;;11.10;4.55;;;;;;;;;;5093034;28;20035;-73
2021/08/22 01:38:56;;;;;;;9.93;4.72;;;;;;;;;;5093546;28;20107;-73
2021/08/22 01:41:23;;;;;;;13.02;4.93;;;;;;;;;;5093263;28;20464;-73
2021/08/22 01:43:50;;;;;;;12.52;5.07;;;;;;;;;;5093254;28;20044;-73
2021/08/22 01:46:16;;;;;;;7.93;4.70;;;;;;;;;;5093120;28;20498;-73
2021/08/22 01:48:42;;;;;;;8.25;4.28;;;;;;;;;;5092896;28;20104;-73
2021/08/22 01:51:09;;;;;;;8.18;4.50;;;;;;;;;;5074670;28;20020;-73
2021/08/22 01:53:36;;;;;;;9.70;4.55;;;;;;;;;;5093223;28;20152;-73
2021/08/22 01:56:02;;;;;;;10.80;4.97;;;;;;;;;;5096632;28;20027;-73
2021/08/22 01:58:28;;;;;;;9.02;4.22;;;;;;;;;;5096890;28;20035;-73
2021/08/22 02:00:54;;;;;;;8.18;4.32;;;;;;;;;;5096544;28;20098;-73
2021/08/22 02:03:29;;;;;;;9.50;4.50;;;;;;;;;;5096518;28;20020;-73
2021/08/22 02:05:58;;;;;;;8.02;4.10;;;;;;;;;;5096978;28;20066;-73
2021/08/22 02:08:26;;;;;;;8.38;4.43;;;;;;;;;;5078252;28;20117;-73
2021/08/22 02:11:06;;;;;;;8.15;4.10;;;;;;;;;;5096633;28;20031;-73
2021/08/22 02:13:36;;;;;;;10.70;4.95;;;;;;;;;;5096890;28;20020;-73
2021/08/22 02:16:03;;;;;;;7.88;3.80;;;;;;;;;;5096224;28;20054;-73
2021/08/22 02:18:30;;;;;;;8.52;4.40;;;;;;;;;;5095999;28;20067;-73
2021/08/22 02:20:57;;;;;;;11.30;4.75;;;;;;;;;;5096149;28;20059;-73
2021/08/22 02:23:23;;;;;;;10.05;4.88;;;;;;;;;;5096066;28;20028;-73
2021/08/22 02:25:49;;;;;;;11.38;4.75;;;;;;;;;;5095995;28;20024;-73
2021/08/22 02:28:16;;;;;;;8.60;4.57;;;;;;;;;;5096000;28;20502;-73
2021/08/22 02:30:42;;;;;;;6.50;3.92;;;;;;;;;;5077848;28;20545;-73
2021/08/22 02:33:08;;;;;;;8.40;3.90;;;;;;;;;;5096766;28;20028;-73
2021/08/22 02:35:35;;;;;;;11.68;4.25;;;;;;;;;;5098124;28;20055;-73
2021/08/22 02:38:01;;;;;;;8.35;4.00;;;;;;;;;;5097360;28;20024;-73
2021/08/22 02:40:27;;;;;;;13.02;4.63;;;;;;;;;;5095831;28;20031;-73
2021/08/22 02:42:53;;;;;;;7.78;4.40;;;;;;;;;;5096045;28;20498;-73
2021/08/22 02:45:19;;;;;;;12.10;4.65;;;;;;;;;;5095627;28;20055;-73
2021/08/22 02:47:45;;;;;;;8.68;4.07;;;;;;;;;;5095912;28;20025;-72
2021/08/22 02:50:12;;;;;;;10.38;4.22;;;;;;;;;;5096147;28;20016;-73
2021/08/22 02:52:38;;;;;;;9.52;4.20;;;;;;;;;;5095529;28;20024;-72
2021/08/22 02:55:04;;;;;;;8.07;3.88;;;;;;;;;;5095503;28;20038;-73
2021/08/22 02:57:30;;;;;;;8.30;4.55;;;;;;;;;;5095749;28;20052;-73
2021/08/22 02:59:56;;;;;;;10.63;4.45;;;;;;;;;;5095373;28;20464;-73
2021/08/22 03:02:22;;;;;;;11.15;4.53;;;;;;;;;;5095629;28;20111;-73
2021/08/22 03:04:48;;;;;;;8.95;4.28;;;;;;;;;;5095299;28;20012;-73
2021/08/22 03:07:14;;;;;;;7.30;4.55;;;;;;;;;;5094380;28;20032;-73
2021/08/22 03:09:40;;;;;;;10.68;4.85;;;;;;;;;;5095209;28;20490;-73
2021/08/22 03:12:06;;;;;;;11.93;4.85;;;;;;;;;;5095198;28;20024;-72
2021/08/22 03:14:33;;;;;;;10.90;4.55;;;;;;;;;;5095333;28;20379;-73
2021/08/22 03:16:59;;;;;;;8.20;4.38;;;;;;;;;;5094807;28;20043;-73
2021/08/22 03:19:25;;;;;;;7.75;3.90;;;;;;;;;;5095640;28;20044;-73
2021/08/22 03:21:51;;;;;;;7.82;4.43;;;;;;;;;;5095019;28;20031;-73
2021/08/22 03:24:17;;;;;;;8.25;4.22;;;;;;;;;;5094920;28;20415;-73
2021/08/22 03:26:43;;;;;;;12.07;4.75;;;;;;;;;;5095106;28;20047;-73
2021/08/22 03:29:09;;;;;;;8.85;4.72;;;;;;;;;;5095087;28;20016;-73
2021/08/22 03:31:35;;;;;;;7.93;4.57;;;;;;;;;;5095040;28;20032;-73
2021/08/22 03:34:01;;;;;;;8.63;4.60;;;;;;;;;;5094715;28;20391;-73
2021/08/22 03:36:27;;;;;;;8.45;3.92;;;;;;;;;;5094690;28;20020;-73
2021/08/22 03:38:53;;;;;;;10.60;4.43;;;;;;;;;;5094945;28;20031;-73
2021/08/22 03:41:19;;;;;;;11.07;4.45;;;;;;;;;;5094899;28;20024;-73
2021/08/22 03:43:45;;;;;;;11.05;4.60;;;;;;;;;;5094811;28;20032;-72
2021/08/22 03:46:11;;;;;;;8.10;4.43;;;;;;;;;;5094413;28;20031;-73
2021/08/22 03:48:37;;;;;;;7.10;4.47;;;;;;;;;;5094494;28;20028;-73
2021/08/22 03:51:03;;;;;;;10.63;4.65;;;;;;;;;;5094404;28;20022;-72
2021/08/22 03:53:29;;;;;;;9.32;4.63;;;;;;;;;;5094365;28;20388;-73
2021/08/22 03:55:55;;;;;;;8.45;4.28;;;;;;;;;;5094322;28;20023;-73
2021/08/22 03:58:21;;;;;;;7.88;4.18;;;;;;;;;;5094550;28;20107;-72
2021/08/22 04:00:47;;;;;;;9.07;4.55;;;;;;;;;;5094250;28;20438;-73
2021/08/22 04:03:13;;;;;;;8.10;4.47;;;;;;;;;;5094163;28;20028;-73
2021/08/22 04:05:39;;;;;;;6.85;4.10;;;;;;;;;;5094091;28;20024;-73
2021/08/22 04:08:05;;;;;;;14.25;4.95;;;;;;;;;;5094085;28;20029;-73
2021/08/22 04:10:31;;;;;;;10.27;4.60;;;;;;;;;;5094073;28;20020;-73
2021/08/22 04:12:58;;;;;;;7.90;4.47;;;;;;;;;;5094070;28;20032;-73
2021/08/22 04:15:24;;;;;;;7.93;4.50;;;;;;;;;;5093969;28;20581;-73
2021/08/22 04:17:50;;;;;;;9.32;4.20;;;;;;;;;;5093865;28;20052;-73
2021/08/22 04:20:16;;;;;;;9.98;5.05;;;;;;;;;;5094183;28;20028;-73
2021/08/22 04:22:43;;;;;;;7.72;4.03;;;;;;;;;;5093863;28;20028;-73
2021/08/22 04:25:10;;;;;;;12.98;4.97;;;;;;;;;;5093711;28;20024;-73
2021/08/22 04:27:38;;;;;;;8.20;4.22;;;;;;;;;;5094041;28;20020;-73
2021/08/22 04:30:05;;;;;;;9.80;4.50;;;;;;;;;;5093758;28;20484;-72
2021/08/22 04:32:31;;;;;;;10.85;4.70;;;;;;;;;;5094261;28;20069;-73
2021/08/22 04:34:57;;;;;;;8.27;4.00;;;;;;;;;;5093961;28;20028;-72
2021/08/22 04:37:23;;;;;;;9.55;4.13;;;;;;;;;;5093674;28;20387;-73
2021/08/22 04:39:49;;;;;;;9.10;4.15;;;;;;;;;;5075508;28;20027;-73
2021/08/22 04:42:15;;;;;;;7.75;3.88;;;;;;;;;;5093605;28;20031;-73
2021/08/22 04:44:41;;;;;;;9.30;4.78;;;;;;;;;;5094094;28;20016;-73
2021/08/22 04:47:07;;;;;;;8.95;4.40;;;;;;;;;;5093428;28;20080;-73
2021/08/22 04:49:33;;;;;;;8.45;4.20;;;;;;;;;;5093471;28;20091;-73
2021/08/22 04:52:00;;;;;;;7.65;4.05;;;;;;;;;;5093463;28;20024;-73
2021/08/22 04:54:26;;;;;;;7.47;3.80;;;;;;;;;;5093694;28;20027;-73
2021/08/22 04:56:52;;;;;;;9.95;4.22;;;;;;;;;;5093433;28;20024;-73
2021/08/22 04:59:18;;;;;;;8.32;3.97;;;;;;;;;;5075296;28;20027;-73
2021/08/22 05:01:44;;;;;;;12.60;4.45;;;;;;;;;;5093640;28;20043;-73
2021/08/22 05:04:10;;;;;;;9.75;4.55;;;;;;;;;;5093578;28;20052;-73
2021/08/22 05:06:36;;;;;;;9.40;4.00;;;;;;;;;;5093228;28;20063;-73
2021/08/22 05:09:02;;;;;;;6.63;3.92;;;;;;;;;;5093331;28;20510;-73
2021/08/22 05:11:28;;;;;;;9.23;4.68;;;;;;;;;;5093281;28;20028;-72
2021/08/22 05:13:54;;;;;;;8.55;4.10;;;;;;;;;;5093266;28;20049;-73
2021/08/22 05:16:20;;;;;;;7.22;4.18;;;;;;;;;;5093130;28;20032;-73
2021/08/22 05:18:46;;;;;;;10.77;4.53;;;;;;;;;;5093048;28;20052;-72
2021/08/22 05:21:12;;;;;;;11.23;4.43;;;;;;;;;;5075033;28;20093;-73
2021/08/22 05:23:38;;;;;;;6.60;3.97;;;;;;;;;;5093144;28;20062;-73
2021/08/22 05:26:04;;;;;;;7.03;3.78;;;;;;;;;;5093042;28;20445;-73
2021/08/22 05:28:30;;;;;;;7.00;3.63;;;;;;;;;;5093079;28;20024;-73
2021/08/22 05:30:56;;;;;;;6.40;3.95;;;;;;;;;;5097102;28;20434;-73
2021/08/22 05:33:22;;;;;;;8.10;3.95;;;;;;;;;;5097104;28;20020;-73
2021/08/22 05:35:48;;;;;;;6.47;3.88;;;;;;;;;;5097044;28;20039;-73
2021/08/22 05:38:14;;;;;;;9.05;3.60;;;;;;;;;;5096997;28;20400;-73
2021/08/22 05:40:40;;;;;;;9.88;4.15;;;;;;;;;;5097245;28;20038;-73
2021/08/22 05:43:06;;;;;;;8.00;4.00;;;;;;;;;;5096884;28;20024;-72
2021/08/22 05:45:32;;;;;;;6.40;4.13;;;;;;;;;;5096754;28;20063;-73
2021/08/22 05:47:58;;;;;;;7.03;4.15;;;;;;;;;;5097093;28;20099;-73
2021/08/22 05:50:24;;;;;;;5.97;3.38;;;;;;;;;;5096797;28;20056;-73
2021/08/22 05:52:50;;;;;;;7.07;3.97;;;;;;;;;;5096761;28;20024;-73
2021/08/22 05:55:16;;;;;;;13.10;3.92;;;;;;;;;;5096675;28;20024;-73
2021/08/22 05:57:43;;;;;;;9.20;3.90;;;;;;;;;;5096650;28;20027;-73
2021/08/22 06:00:10;;;;;;;7.00;3.75;;;;;;;;;;5096886;28;20107;-73
2021/08/22 06:02:37;;;;;;;9.07;3.80;;;;;;;;;;5096845;28;20099;-73
2021/08/22 06:05:04;;;;;;;6.28;3.90;;;;;;;;;;5096811;28;20028;-73
2021/08/22 06:07:30;;;;;;;5.75;3.45;;;;;;;;;;5096785;28;20074;-73
2021/08/22 06:09:58;;;;;;;6.80;3.88;;;;;;;;;;5096431;28;20471;-73
2021/08/22 06:12:24;;;;;;;8.45;3.72;;;;;;;;;;5096376;28;20031;-73
2021/08/22 06:14:50;;;;;;;9.82;4.07;;;;;;;;;;5096208;28;20032;-73
2021/08/22 06:17:16;;;;;;;10.18;4.35;;;;;;;;;;5096073;28;20055;-73
2021/08/22 06:19:42;;;;;;;8.38;3.97;;;;;;;;;;5096820;28;20074;-73
2021/08/22 06:22:08;;;;;;;7.18;3.65;;;;;;;;;;5096440;28;20100;-73
2021/08/22 06:24:34;;;;;;;8.32;3.97;;;;;;;;;;5096141;28;20060;-73
2021/08/22 06:27:01;;;;;;;7.55;4.18;;;;;;;;;;5096318;28;20099;-73
2021/08/22 06:29:27;;;;;;;7.78;4.13;;;;;;;;;;5096090;28;20024;-73
2021/08/22 06:31:53;;;;;;;8.48;4.05;;;;;;;;;;5096591;28;20026;-73
2021/08/22 06:34:19;;;;;;;8.13;4.28;;;;;;;;;;5096046;28;20066;-73
2021/08/22 06:36:46;;;;;;;9.57;4.22;;;;;;;;;;5096523;28;20039;-73
2021/08/22 06:39:12;;;;;;;12.23;4.30;;;;;;;;;;5096605;28;20024;-73
2021/08/22 06:41:39;;;;;;;8.68;3.85;;;;;;;;;;5094712;28;20081;-73
2021/08/22 06:44:05;;;;;;;6.55;3.83;;;;;;;;;;5096358;28;20055;-73
2021/08/22 06:46:31;;;;;;;9.18;4.32;;;;;;;;;;5095723;28;20028;-73
2021/08/22 06:48:57;;;;;;;6.38;3.53;;;;;;;;;;5095719;28;20024;-73
2021/08/22 06:51:23;;;;;;;10.10;3.88;;;;;;;;;;5095736;28;20039;-73
2021/08/22 06:53:50;;;;;;;8.77;4.10;;;;;;;;;;5095600;28;20031;-73
2021/08/22 06:56:16;;;;;;;11.23;4.57;;;;;;;;;;5095619;28;20020;-73
2021/08/22 06:58:42;;;;;;;6.95;3.88;;;;;;;;;;5077375;28;20441;-73
2021/08/22 07:01:08;;;;;;;7.55;4.28;;;;;;;;;;5095383;28;20024;-73
2021/08/22 07:03:34;;;;;;;8.55;3.88;;;;;;;;;;5095677;28;20091;-73
2021/08/22 07:06:00;;;;;;;8.35;4.10;;;;;;;;;;5095373;28;20028;-73
2021/08/22 07:08:27;;;;;;;8.88;4.05;;;;;;;;;;5095297;28;20077;-73
2021/08/22 07:10:53;;;;;;;6.95;3.95;;;;;;;;;;5077146;28;20518;-73
2021/08/22 07:13:18;;;;;;;9.48;4.57;;;;;;;;;;5095343;28;20071;-73
2021/08/22 07:15:44;;;;;;;9.52;5.25;;;;;;;;;;5095121;28;20027;-73
2021/08/22 07:18:10;;;;;;;8.73;4.63;;;;;;;;;;5094872;28;20455;-73
2021/08/22 07:20:36;;;;;;;6.13;4.10;;;;;;;;;;5095313;28;20035;-73
2021/08/22 07:23:02;;;;;;;8.40;4.18;;;;;;;;;;5094966;28;20391;-73
2021/08/22 07:25:28;;;;;;;8.38;4.20;;;;;;;;;;5094850;28;20031;-73
2021/08/22 07:27:54;;;;;;;9.48;4.95;;;;;;;;;;5076784;28;20505;-73
2021/08/22 07:30:22;;;;;;;9.18;4.43;;;;;;;;;;5094824;28;20048;-73
2021/08/22 07:32:48;;;;;;;6.82;3.90;;;;;;;;;;5076834;28;20383;-73
2021/08/22 07:35:14;;;;;;;7.63;4.35;;;;;;;;;;5094623;28;20103;-73
2021/08/22 07:37:40;;;;;;;8.57;4.45;;;;;;;;;;5094568;28;20020;-73
2021/08/22 07:40:06;;;;;;;8.73;4.35;;;;;;;;;;5094542;28;20349;-73
2021/08/22 07:42:32;;;;;;;8.05;4.15;;;;;;;;;;5094475;28;20077;-73
2021/08/22 07:44:58;;;;;;;10.40;4.28;;;;;;;;;;5094732;28;20020;-73
2021/08/22 07:47:24;;;;;;;8.45;4.28;;;;;;;;;;5094392;28;20063;-73
2021/08/22 07:49:50;;;;;;;6.75;3.85;;;;;;;;;;5094411;28;20024;-73
2021/08/22 07:52:16;;;;;;;8.00;4.57;;;;;;;;;;5094558;28;20034;-73
2021/08/22 07:54:42;;;;;;;10.65;4.13;;;;;;;;;;5094306;28;20095;-73
2021/08/22 07:57:08;;;;;;;9.07;4.43;;;;;;;;;;5094528;28;20433;-73
2021/08/22 07:59:35;;;;;;;9.93;4.07;;;;;;;;;;5094184;28;20111;-73
2021/08/22 08:02:01;;;;;;;9.05;4.85;;;;;;;;;;5094157;28;20069;-73
2021/08/22 08:04:27;;;;;;;8.75;4.57;;;;;;;;;;5094109;28;20023;-74
2021/08/22 08:06:53;;;;;;;10.68;4.63;;;;;;;;;;5094015;28;20028;-73
2021/08/22 08:09:19;;;;;;;6.50;4.35;;;;;;;;;;5094327;28;20047;-73
2021/08/22 08:11:45;;;;;;;7.50;4.20;;;;;;;;;;5094262;28;20028;-73
2021/08/22 08:14:11;;;;;;;8.88;4.45;;;;;;;;;;5093909;28;20020;-73
2021/08/22 08:16:37;;;;;;;8.43;4.90;;;;;;;;;;5093859;28;20024;-73
2021/08/22 08:19:03;;;;;;;7.70;4.13;;;;;;;;;;5093457;28;20048;-73
2021/08/22 08:21:29;;;;;;;9.80;4.68;;;;;;;;;;5094113;28;20078;-73
2021/08/22 08:23:56;;;;;;;8.75;4.38;;;;;;;;;;5094090;28;20107;-73
2021/08/22 08:26:22;;;;;;;7.45;4.25;;;;;;;;;;5093670;28;20024;-73
2021/08/22 08:28:48;;;;;;;6.80;4.18;;;;;;;;;;5094268;28;20020;-73
2021/08/22 08:31:14;;;;;;;7.85;3.95;;;;;;;;;;5093651;28;20494;-73
2021/08/22 08:33:40;;;;;;;9.65;4.45;;;;;;;;;;5093631;28;20023;-73
2021/08/22 08:36:06;;;;;;;8.65;4.50;;;;;;;;;;5093914;28;20486;-73
2021/08/22 08:38:32;;;;;;;9.98;4.38;;;;;;;;;;5093520;28;20028;-73
2021/08/22 08:41:02;;;;;;;7.85;4.57;;;;;;;;;;5093791;28;20467;-73
2021/08/22 08:43:28;;;;;;;9.90;4.60;;;;;;;;;;5093736;28;20024;-73
2021/08/22 08:46:00;;;;;;;6.25;4.35;;;;;;;;;;5093353;28;20028;-73
2021/08/22 08:48:30;;;;;;;8.05;4.38;;;;;;;;;;5093435;28;20070;-73
2021/08/22 08:51:14;;;;;;;9.10;4.05;;;;;;;;;;5093378;28;20104;-73
2021/08/22 08:53:44;;;;;;;9.77;4.40;;;;;;;;;;5093420;28;20024;-73
2021/08/22 08:56:14;;;;;;;7.32;4.05;;;;;;;;;;5093899;28;20392;-73
2021/08/22 08:58:40;;;;;;;7.03;3.42;;;;;;;;;;5093293;28;20514;-73
2021/08/22 09:01:06;;;;;;;7.00;3.53;;;;;;;;;;5093263;28;20028;-73
2021/08/22 09:03:32;;;;;;;7.60;3.58;;;;;;;;;;5092517;28;20543;-73
2021/08/22 09:06:03;;;;;;;5.45;3.60;;;;;;;;;;5093250;28;20115;-73
2021/08/22 09:08:48;;;;;;;6.03;3.05;;;;;;;;;;5093824;28;20035;-73
2021/08/22 09:11:17;;;;;;;4.78;3.25;;;;;;;;;;5093775;28;20099;-73
2021/08/22 09:14:02;;;;;;;7.00;3.13;;;;;;;;;;5093191;28;20028;-73
2021/08/22 09:16:31;;;;;;;6.55;2.70;;;;;;;;;;5093374;28;20016;-73
2021/08/22 09:19:03;;;;;;;5.50;2.60;;;;;;;;;;5092943;28;20071;-73
2021/08/22 09:21:48;;;;;;;6.28;2.90;;;;;;;;;;5093391;28;20103;-73
2021/08/22 09:24:32;;;;;;;5.43;2.88;;;;;;;;;;5074922;28;20492;-73
2021/08/22 09:27:17;;;;;;;5.10;2.63;;;;;;;;;;5093210;28;20024;-73
2021/08/22 09:30:01;;;;;;;6.68;2.83;;;;;;;;;;5093561;28;20464;-73
2021/08/22 09:32:56;;;;;;;6.18;2.72;;;;;;;;;;5092969;28;20027;-73
2021/08/22 09:35:41;;;;;;;4.78;2.40;;;;;;;;;;5093425;28;20020;-73
2021/08/22 09:38:07;;;;;;;3.33;2.42;;;;;;;;;;5092972;28;20115;-73
2021/08/22 09:40:36;;;;;;;6.10;2.75;;;;;;;;;;5093205;28;20472;-73
2021/08/22 09:43:14;;;;;;;6.07;2.63;;;;;;;;;;5093226;28;20017;-73
2021/08/22 09:45:55;;;;;;;6.05;2.47;;;;;;;;;;5093317;28;20055;-73
2021/08/22 09:48:40;;;;;;;6.25;2.60;;;;;;;;;;5093360;28;20020;-73
2021/08/22 09:51:25;;;;;;;5.35;2.40;;;;;;;;;;5093108;28;20035;-73
2021/08/22 09:54:10;;;;;;;5.25;2.40;;;;;;;;;;5092807;28;20031;-73
2021/08/22 09:56:54;;;;;;;2.88;2.05;;;;;;;;;;5093097;28;20056;-73
2021/08/22 09:59:29;;;;;;;4.20;2.33;;;;;;;;;;5092775;28;20031;-73
2021/08/22 10:02:01;;;;;;;3.92;2.28;;;;;;;;;;5093264;28;20531;-73
2021/08/22 10:04:46;;;;;;;6.03;2.65;;;;;;;;;;5092701;28;20050;-73
2021/08/22 10:07:17;;;;;;;4.20;1.80;;;;;;;;;;5092898;28;20028;-74
2021/08/22 10:10:03;;;;;;;4.10;2.30;;;;;;;;;;5092683;28;20024;-73
2021/08/22 10:12:29;;;;;;;6.53;2.35;;;;;;;;;;5092583;28;20021;-73
2021/08/22 10:14:55;;;;;;;5.07;2.20;;;;;;;;;;5093158;28;20032;-73
2021/08/22 10:17:23;;;;;;;3.30;2.00;;;;;;;;;;5095980;28;20050;-73
2021/08/22 10:19:50;;;;;;;4.15;2.47;;;;;;;;;;5096736;28;20024;-73
2021/08/22 10:22:19;;;;;;;3.58;1.92;;;;;;;;;;5096705;28;20055;-73
2021/08/22 10:24:57;;;;;;;5.30;2.20;;;;;;;;;;5096115;28;20032;-73
2021/08/22 10:27:36;;;;;;;5.18;2.20;;;;;;;;;;5096335;28;20024;-73
2021/08/22 10:30:03;;;;;;;3.47;2.17;;;;;;;;;;5096590;28;20020;-73
2021/08/22 10:32:33;;;;;;;3.03;1.67;;;;;;;;;;5095983;28;20099;-73
2021/08/22 10:35:08;;;;;;;3.70;1.73;;;;;;;;;;5096134;28;20498;-73
2021/08/22 10:37:34;;;;;;;2.45;1.98;;;;;;;;;;5095980;28;20388;-73
2021/08/22 10:40:29;;;;;;;3.90;1.80;;;;;;;;;;5095762;28;20028;-73
2021/08/22 10:43:09;;;;;;;7.05;2.05;;;;;;;;;;5093239;28;20542;-73
2021/08/22 10:45:41;;;;;;;5.55;2.00;;;;;;;;;;5095626;28;20032;-73
2021/08/22 10:48:07;;;;;;;3.53;1.85;;;;;;;;;;5095887;28;20430;-73
2021/08/22 10:50:52;;;;;;;2.13;1.30;;;;;;;;;;5095600;28;20539;-73
2021/08/22 10:53:22;;;;;;;3.65;1.67;;;;;;;;;;5095502;28;20054;-73
2021/08/22 10:55:48;;;;;;;2.90;1.63;;;;;;;;;;5095741;28;20038;-73
2021/08/22 10:58:15;;;;;;;4.05;1.50;;;;;;;;;;5095955;28;20089;-74
2021/08/22 11:00:41;;;;;;;3.13;1.52;;;;;;;;;;5095391;28;20383;-73
2021/08/22 11:03:23;;;;;;;7.00;1.83;;;;;;;;;;5095595;28;20020;-73
2021/08/22 11:05:49;;;;;;;4.18;1.48;;;;;;;;;;5095464;28;20032;-73
2021/08/22 11:08:17;;;;;;;4.43;1.45;;;;;;;;;;5095238;28;20062;-73
2021/08/22 11:10:56;;;;;;;3.67;1.50;;;;;;;;;;5095209;28;20021;-73
2021/08/22 11:13:22;;;;;;;3.63;1.98;;;;;;;;;;5095486;28;20382;-73
2021/08/22 11:15:48;;;;;;;3.78;1.52;;;;;;;;;;5095265;28;20099;-73
2021/08/22 11:18:18;;;;;;;5.80;2.28;;;;;;;;;;5094823;28;20478;-73
2021/08/22 11:20:44;;;;;;;3.63;1.60;;;;;;;;;;5095579;28;20444;-73
2021/08/22 11:23:16;;;;;;;6.22;1.80;;;;;;;;;;5077585;28;20504;-73
2021/08/22 11:25:43;;;;;;;3.47;1.95;;;;;;;;;;5077716;28;20031;-73
2021/08/22 11:28:10;;;;;;;4.10;1.70;;;;;;;;;;5076137;28;20341;-73
2021/08/22 11:30:37;;;;;;;5.18;1.73;;;;;;;;;;5076571;28;20426;-73
2021/08/22 11:33:04;;;;;;;3.15;1.75;;;;;;;;;;5094997;28;20483;-73
2021/08/22 11:35:30;;;;;;;5.60;1.90;;;;;;;;;;5094937;28;20027;-73
2021/08/22 11:38:00;;;;;;;2.25;1.70;;;;;;;;;;5094683;28;20054;-73
2021/08/22 11:40:26;;;;;;;6.45;1.80;;;;;;;;;;5094686;28;20074;-73
2021/08/22 11:43:03;;;;;;;6.72;1.85;;;;;;;;;;5094867;28;20027;-73
2021/08/22 11:45:41;;;;;;;3.83;1.60;;;;;;;;;;5095005;28;20059;-73
2021/08/22 11:48:07;;;;;;;3.85;1.80;;;;;;;;;;5076232;28;20039;-73
2021/08/22 11:50:35;;;;;;;3.67;1.67;;;;;;;;;;5076264;28;20026;-73
2021/08/22 11:53:02;;;;;;;2.38;1.67;;;;;;;;;;5076172;28;20027;-74
2021/08/22 11:55:33;;;;;;;4.68;2.00;;;;;;;;;;5094802;28;20024;-73
2021/08/22 11:58:15;;;;;;;2.33;1.30;;;;;;;;;;5094297;28;20099;-73
2021/08/22 12:00:42;;;;;;;3.83;1.60;;;;;;;;;;5094521;28;20027;-73
2021/08/22 12:03:13;;;;;;;2.83;1.40;;;;;;;;;;5094447;28;20020;-73
2021/08/22 12:05:51;;;;;;;3.30;1.50;;;;;;;;;;5094073;28;20034;-73
2021/08/22 12:08:18;;;;;;;2.42;1.38;;;;;;;;;;5094419;28;20486;-73
2021/08/22 12:10:44;;;;;;;2.22;1.48;;;;;;;;;;5075844;28;20020;-73
2021/08/22 12:13:15;;;;;;;2.97;1.40;;;;;;;;;;5093917;28;20024;-73
2021/08/22 12:15:41;;;;;;;1.80;1.40;;;;;;;;;;5093995;28;20035;-73
2021/08/22 12:18:16;;;;;;;4.50;1.70;;;;;;;;;;5093799;28;20047;-73
2021/08/22 12:20:43;;;;;;;4.38;1.83;;;;;;;;;;5075585;28;20028;-74
2021/08/22 12:23:10;;;;;;;3.85;1.70;;;;;;;;;;5096212;28;20039;-74
2021/08/22 12:25:36;;;;;;;3.67;1.83;;;;;;;;;;5094397;28;20028;-73
2021/08/22 12:28:25;;;;;;;3.65;1.75;;;;;;;;;;5094075;28;20024;-73
2021/08/22 12:31:10;;;;;;;4.25;1.98;;;;;;;;;;5094036;28;20472;-73
2021/08/22 12:33:37;;;;;;;3.33;1.95;;;;;;;;;;5093564;28;20020;-73
2021/08/22 12:36:04;;;;;;;3.63;1.60;;;;;;;;;;5093907;28;20024;-73
2021/08/22 12:38:53;;;;;;;3.17;2.08;;;;;;;;;;5092684;28;20027;-73
2021/08/22 12:41:22;;;;;;;6.55;2.53;;;;;;;;;;5080874;28;20119;-73
2021/08/22 12:43:48;;;;;;;1.50;1.40;;;;;;;;;;5093830;28;20016;-73
2021/08/22 12:46:14;;;;;;;4.90;2.03;;;;;;;;;;5093470;28;20377;-73
2021/08/22 12:48:40;;;;;;;4.07;1.65;;;;;;;;;;5093431;28;20019;-73
2021/08/22 12:51:09;;;;;;;3.10;1.45;;;;;;;;;;5093472;28;20027;-73
2021/08/22 12:53:35;;;;;;;2.90;1.58;;;;;;;;;;5093439;28;20024;-73
2021/08/22 12:56:01;;;;;;;3.05;1.83;;;;;;;;;;5093364;28;20028;-73
2021/08/22 12:58:28;;;;;;;3.95;1.05;;;;;;;;;;5093382;28;20028;-73
2021/08/22 13:00:53;;;;;;;5.97;2.03;;;;;;;;;;5093364;28;20063;-73
2021/08/22 13:03:20;;;;;;;2.63;1.35;;;;;;;;;;5093284;28;20020;-73
2021/08/22 13:05:45;;;;;;;3.95;1.50;;;;;;;;;;5093150;28;20039;-73
2021/08/22 13:08:11;;;;;;;3.85;1.70;;;;;;;;;;5093219;28;20380;-73
2021/08/22 13:10:37;;;;;;;5.40;1.70;;;;;;;;;;5093505;28;20051;-73
2021/08/22 13:13:04;;;;;;;2.75;1.60;;;;;;;;;;5093191;28;20354;-73
2021/08/22 13:15:30;;;;;;;4.13;1.50;;;;;;;;;;5093102;28;20020;-73
2021/08/22 13:17:56;;;;;;;5.13;1.33;;;;;;;;;;5093201;28;20040;-73
2021/08/22 13:20:22;;;;;;;3.53;1.70;;;;;;;;;;5093393;28;20024;-73
2021/08/22 13:22:48;;;;;;;4.90;1.30;;;;;;;;;;5093092;28;20566;-73
2021/08/22 13:25:14;;;;;;;8.77;2.05;;;;;;;;;;5093105;28;20051;-73
2021/08/22 13:27:40;;;;;;;3.10;1.50;;;;;;;;;;5093009;28;20051;-73
2021/08/22 13:30:07;;;;;;;4.70;1.63;;;;;;;;;;5092999;28;20024;-73
2021/08/22 13:32:33;;;;;;;3.70;1.70;;;;;;;;;;5092990;28;20027;-73
2021/08/22 13:34:59;;;;;;;4.72;1.50;;;;;;;;;;5093296;28;20032;-73
2021/08/22 13:37:25;;;;;;;2.30;1.60;;;;;;;;;;5092947;28;20046;-73
2021/08/22 13:39:51;;;;;;;3.78;1.58;;;;;;;;;;5092958;28;20035;-73
2021/08/22 13:42:17;;;;;;;8.98;1.67;;;;;;;;;;5092901;28;20030;-73
2021/08/22 13:44:43;;;;;;;4.28;1.65;;;;;;;;;;5092887;28;20029;-73
2021/08/22 13:47:09;;;;;;;4.10;1.73;;;;;;;;;;5092761;28;20028;-73
2021/08/22 13:49:34;;;;;;;2.88;1.45;;;;;;;;;;5092954;28;20025;-73
2021/08/22 13:52:01;;;;;;;2.97;1.33;;;;;;;;;;5097049;28;20020;-73
2021/08/22 13:54:27;;;;;;;3.35;1.70;;;;;;;;;;5096639;28;20024;-73
2021/08/22 13:56:53;;;;;;;6.25;1.70;;;;;;;;;;5097374;28;20028;-73
2021/08/22 13:59:19;;;;;;;2.95;1.73;;;;;;;;;;5098547;28;20035;-73
2021/08/22 14:01:45;;;;;;;2.72;1.50;;;;;;;;;;5096907;28;20032;-73
2021/08/22 14:04:11;;;;;;;3.58;1.33;;;;;;;;;;5096757;28;20028;-73
2021/08/22 14:06:37;;;;;;;2.85;1.60;;;;;;;;;;5096456;28;20104;-73
2021/08/22 14:09:03;;;;;;;2.45;1.40;;;;;;;;;;5096764;28;20453;-73
2021/08/22 14:11:30;;;;;;;4.07;1.55;;;;;;;;;;5096465;28;20016;-73
2021/08/22 14:13:56;;;;;;;4.10;1.50;;;;;;;;;;5096508;28;20042;-73
2021/08/22 14:16:22;;;;;;;3.85;1.27;;;;;;;;;;5096151;28;20032;-73
2021/08/22 14:18:51;;;;;;;3.85;1.50;;;;;;;;;;5095821;28;20115;-73
2021/08/22 14:21:17;;;;;;;4.88;1.20;;;;;;;;;;5096367;28;20468;-73
2021/08/22 14:23:43;;;;;;;5.45;1.80;;;;;;;;;;5096195;28;20028;-73
2021/08/22 14:26:09;;;;;;;2.75;1.40;;;;;;;;;;5095984;28;20020;-73
2021/08/22 14:28:35;;;;;;;4.72;1.48;;;;;;;;;;5100281;28;20024;-73
2021/08/22 14:31:02;;;;;;;3.13;1.73;;;;;;;;;;5096224;28;20020;-73
2021/08/22 14:33:28;;;;;;;3.63;1.27;;;;;;;;;;5096316;28;20034;-73
2021/08/22 14:35:54;;;;;;;4.25;1.80;;;;;;;;;;5096108;28;20106;-73
2021/08/22 14:38:20;;;;;;;2.55;1.48;;;;;;;;;;5095920;28;20038;-73
2021/08/22 14:40:47;;;;;;;4.85;1.80;;;;;;;;;;5095765;28;20020;-73
2021/08/22 14:43:13;;;;;;;1.50;1.20;;;;;;;;;;5096115;28;20418;-73
2021/08/22 14:45:40;;;;;;;2.63;1.25;;;;;;;;;;5095581;28;20053;-73